Time;durP1;ratioP1;P1;durP2;ratioP2;P2;SDS_P1;SDS_P2;PMS_P1;PMS_P2;Temp;Humidity;BMP_temperature;BMP_pressure;BME280_temperature;BME280_humidity;BME280_pressure;Samples;Min_cycle;Max_cycle;Signal;HPM_P1;HPM_P2
2022/01/26 00:05:45;;;;;;;28.73;17.53;;;4.80;45.20;;;;;;10415565;28;20221;-71
2022/01/26 00:06:24;;;;;;;30.27;18.43;;;4.80;45.00;;;;;;10417380;28;20232;-71
2022/01/26 00:11:31;;;;;;;28.37;18.43;;;4.90;45.20;;;;;;10412888;28;20779;-71
2022/01/26 00:16:38;;;;;;;29.87;18.83;;;4.90;45.20;;;;;;10414833;28;20310;-71
2022/01/26 00:21:47;;;;;;;30.73;19.33;;;4.90;45.00;;;;;;10413130;28;20228;-71
2022/01/26 00:27:09;;;;;;;27.43;17.47;;;4.90;45.00;;;;;;10412293;28;20241;-71
2022/01/26 00:43:03;;;;;;;26.63;17.77;;;4.60;45.20;;;;;;10422135;28;20618;-71
2022/01/26 00:48:09;;;;;;;26.77;17.97;;;4.50;45.20;;;;;;10434810;28;20312;-71
2022/01/26 00:53:12;;;;;;;29.97;19.27;;;4.60;45.30;;;;;;10428739;28;20963;-71
2022/01/26 00:58:17;;;;;;;28.27;18.07;;;4.50;45.30;;;;;;10424229;28;20234;-72
2022/01/26 01:03:20;;;;;;;27.53;17.83;;;4.60;45.60;;;;;;10432824;28;20228;-72
2022/01/26 01:08:25;;;;;;;29.13;19.23;;;4.60;45.50;;;;;;10422465;28;20229;-71
2022/01/26 01:13:34;;;;;;;37.23;20.70;;;4.70;45.40;;;;;;10426930;28;20247;-71
2022/01/26 01:18:44;;;;;;;32.77;20.03;;;4.70;45.50;;;;;;10427256;28;20233;-71
2022/01/26 01:29:17;;;;;;;34.10;20.53;;;4.80;45.30;;;;;;10424465;28;20597;-71
2022/01/26 01:34:22;;;;;;;30.63;20.57;;;4.70;45.50;;;;;;10427312;28;20324;-71
2022/01/26 01:39:25;;;;;;;35.43;20.93;;;4.70;45.40;;;;;;10417014;28;20237;-71
2022/01/26 01:44:30;;;;;;;32.47;20.70;;;4.80;45.40;;;;;;10428118;28;20831;-71
2022/01/26 01:49:34;;;;;;;35.33;21.40;;;4.80;45.50;;;;;;10421560;28;20236;-71
2022/01/26 01:54:40;;;;;;;31.57;20.10;;;4.80;45.50;;;;;;10420796;28;20236;-72
2022/01/26 01:59:44;;;;;;;34.33;21.13;;;4.80;45.40;;;;;;10423875;28;20233;-71
2022/01/26 02:04:48;;;;;;;34.63;21.40;;;4.80;45.40;;;;;;10420388;28;20221;-72
2022/01/26 02:09:51;;;;;;;33.13;21.17;;;4.80;45.30;;;;;;10423190;28;20225;-71
2022/01/26 02:15:05;;;;;;;34.33;22.40;;;4.80;45.20;;;;;;10427993;28;20256;-71
2022/01/26 02:20:39;;;;;;;34.70;21.80;;;4.80;45.40;;;;;;10419807;28;20225;-71
2022/01/26 02:52:46;;;;;;;28.27;17.70;;;4.80;45.30;;;;;;10417840;28;20228;-71
2022/01/26 02:58:20;;;;;;;34.47;21.33;;;4.90;45.70;;;;;;10418015;28;20262;-71
2022/01/26 03:03:27;;;;;;;36.43;22.33;;;4.90;45.60;;;;;;10421287;28;20234;-72
2022/01/26 03:08:35;;;;;;;34.57;21.60;;;4.90;45.50;;;;;;10417427;28;20225;-71
2022/01/26 03:13:44;;;;;;;40.23;24.87;;;4.90;45.50;;;;;;10413923;28;20237;-72
2022/01/26 03:19:02;;;;;;;35.97;22.77;;;4.90;45.40;;;;;;10413138;28;20236;-72
2022/01/26 03:29:41;;;;;;;39.63;24.03;;;4.90;45.50;;;;;;10413857;28;20225;-71
2022/01/26 03:34:52;;;;;;;35.73;21.77;;;4.90;45.50;;;;;;10415619;28;20233;-71
2022/01/26 03:39:56;;;;;;;38.67;22.87;;;4.90;45.60;;;;;;10417096;28;20260;-72
2022/01/26 03:45:00;;;;;;;36.90;22.90;;;5.00;45.70;;;;;;10417008;28;20228;-71
2022/01/26 03:50:04;;;;;;;37.80;23.67;;;5.00;45.40;;;;;;10410857;28;20228;-72
2022/01/26 03:55:10;;;;;;;42.00;25.80;;;5.00;45.50;;;;;;10415456;28;20775;-71
2022/01/26 04:00:14;;;;;;;43.03;25.80;;;5.10;45.50;;;;;;10423213;28;20224;-72
2022/01/26 04:05:17;;;;;;;42.70;25.93;;;5.10;45.60;;;;;;10425060;28;20774;-71
2022/01/26 04:10:32;;;;;;;41.13;25.03;;;5.10;45.40;;;;;;10424094;28;20217;-71
2022/01/26 04:15:37;;;;;;;39.50;24.87;;;5.20;45.50;;;;;;10428776;28;20240;-71
2022/01/26 04:20:44;;;;;;;37.27;23.67;;;5.20;45.10;;;;;;10440427;28;20227;-71
2022/01/26 04:25:50;;;;;;;37.10;23.77;;;5.10;45.00;;;;;;10423648;28;20228;-72
2022/01/26 04:30:53;;;;;;;33.73;21.93;;;5.10;45.20;;;;;;10435932;28;20241;-71
2022/01/26 04:35:57;;;;;;;31.83;20.33;;;5.10;45.20;;;;;;10418612;28;20228;-71
2022/01/26 04:41:14;;;;;;;39.10;24.00;;;5.10;45.20;;;;;;10424403;28;20221;-71
2022/01/26 04:46:18;;;;;;;41.17;25.40;;;5.10;45.20;;;;;;10422223;28;20244;-71
2022/01/26 04:51:21;;;;;;;35.97;23.20;;;5.10;45.20;;;;;;10433382;28;20796;-71
2022/01/26 04:56:26;;;;;;;33.30;22.30;;;5.10;45.20;;;;;;10431394;28;20256;-71
2022/01/26 05:01:29;;;;;;;39.80;24.43;;;5.00;45.20;;;;;;10433490;28;20222;-71
2022/01/26 05:06:32;;;;;;;40.23;25.13;;;5.00;45.00;;;;;;10423433;28;20229;-71
2022/01/26 05:11:40;;;;;;;42.00;25.80;;;5.00;45.30;;;;;;10431410;28;20217;-71
2022/01/26 05:16:43;;;;;;;42.10;26.83;;;5.00;45.40;;;;;;10426000;28;20233;-71
2022/01/26 05:21:46;;;;;;;40.77;25.13;;;5.00;45.40;;;;;;10425437;28;20221;-71
2022/01/26 05:26:51;;;;;;;42.07;25.73;;;4.90;45.20;;;;;;10434953;28;20224;-72
2022/01/26 05:31:54;;;;;;;43.50;26.73;;;4.90;45.90;;;;;;10437755;28;20840;-71
2022/01/26 05:36:57;;;;;;;41.47;26.03;;;4.90;45.30;;;;;;10427072;28;20229;-71
2022/01/26 05:42:05;;;;;;;36.87;23.03;;;4.90;45.20;;;;;;10437935;28;20400;-71
2022/01/26 05:47:14;;;;;;;40.07;23.53;;;4.90;45.40;;;;;;10429126;28;20233;-72
2022/01/26 05:52:17;;;;;;;36.60;23.77;;;4.80;45.20;;;;;;10429197;28;20236;-72
2022/01/26 05:57:22;;;;;;;38.13;23.03;;;4.90;45.20;;;;;;10424839;28;20598;-72
2022/01/26 06:02:25;;;;;;;35.97;22.70;;;4.80;45.20;;;;;;10432371;28;20234;-72
2022/01/26 06:07:28;;;;;;;37.97;23.93;;;4.80;45.10;;;;;;10429212;28;20235;-72
2022/01/26 06:12:34;;;;;;;35.10;21.10;;;4.80;45.70;;;;;;10421597;28;20234;-72
2022/01/26 06:17:37;;;;;;;36.97;22.33;;;4.80;46.40;;;;;;10418812;28;20230;-70
2022/01/26 06:22:41;;;;;;;36.70;23.40;;;4.80;46.10;;;;;;10428065;28;20590;-71
2022/01/26 06:27:47;;;;;;;36.73;24.53;;;4.90;45.70;;;;;;10420550;28;20760;-71
2022/01/26 06:32:50;;;;;;;36.93;23.07;;;4.90;45.50;;;;;;10427580;28;20221;-71
2022/01/26 06:37:56;;;;;;;34.27;21.30;;;4.90;45.40;;;;;;10418303;28;20237;-71
2022/01/26 06:43:05;;;;;;;34.57;22.87;;;4.90;45.20;;;;;;10415841;28;20309;-71
2022/01/26 06:48:38;;;;;;;31.13;20.57;;;4.80;45.20;;;;;;10421575;28;20232;-71
2022/01/26 06:53:40;;;;;;;29.73;19.30;;;4.80;45.30;;;;;;10424691;28;20233;-71
2022/01/26 06:58:44;;;;;;;29.73;19.90;;;4.80;45.20;;;;;;10421922;28;20233;-71
2022/01/26 07:03:48;;;;;;;28.83;19.47;;;4.80;45.30;;;;;;10413528;28;20233;-72
2022/01/26 07:08:51;;;;;;;27.77;18.97;;;4.70;45.00;;;;;;10424847;28;20225;-72
2022/01/26 07:13:58;;;;;;;28.53;18.47;;;4.80;45.00;;;;;;10420337;28;20222;-72
2022/01/26 07:24:22;;;;;;;31.03;20.63;;;4.70;45.10;;;;;;10424381;28;20240;-72
2022/01/26 07:29:27;;;;;;;30.80;20.53;;;4.60;45.20;;;;;;10421231;28;20607;-71
2022/01/26 07:34:30;;;;;;;30.87;19.87;;;4.60;45.40;;;;;;10420458;28;20232;-71
2022/01/26 07:39:42;;;;;;;25.83;18.23;;;4.50;45.30;;;;;;10420636;28;20244;-71
2022/01/26 07:44:48;;;;;;;28.23;19.33;;;4.50;45.30;;;;;;10417788;28;20600;-71
2022/01/26 07:49:54;;;;;;;29.80;19.67;;;4.40;45.50;;;;;;10417022;28;20763;-71
2022/01/26 07:54:57;;;;;;;28.83;19.23;;;4.30;45.60;;;;;;10417254;28;20495;-71
2022/01/26 08:00:02;;;;;;;27.53;18.23;;;4.30;45.70;;;;;;10409097;28;20913;-71
2022/01/26 08:05:06;;;;;;;25.53;17.57;;;4.10;45.70;;;;;;10403608;28;20575;-71
2022/01/26 08:10:12;;;;;;;27.70;17.67;;;4.10;45.70;;;;;;10406645;28;20314;-72
2022/01/26 08:15:18;;;;;;;27.20;16.77;;;4.00;45.90;;;;;;10408761;28;20229;-71
2022/01/26 08:20:22;;;;;;;24.70;16.20;;;4.00;46.00;;;;;;10408530;28;21838;-71
2022/01/26 08:25:28;;;;;;;24.40;16.43;;;4.00;46.00;;;;;;10406391;28;20237;-71
2022/01/26 08:30:36;;;;;;;25.33;16.43;;;4.00;46.10;;;;;;10407811;28;20233;-71
2022/01/26 08:35:41;;;;;;;25.87;16.30;;;4.00;46.20;;;;;;10410512;28;20782;-71
2022/01/26 08:40:45;;;;;;;23.07;16.60;;;4.00;46.00;;;;;;10414750;28;20752;-71
2022/01/26 08:45:49;;;;;;;22.27;15.60;;;4.00;46.00;;;;;;10413882;28;20309;-70
2022/01/26 08:50:53;;;;;;;25.20;16.63;;;4.10;46.10;;;;;;10411159;28;20294;-71
2022/01/26 08:55:56;;;;;;;23.57;15.53;;;4.10;45.90;;;;;;10414041;28;20241;-70
2022/01/26 09:01:01;;;;;;;20.17;14.23;;;4.00;46.00;;;;;;10411875;28;20224;-70
2022/01/26 09:06:05;;;;;;;23.97;16.10;;;4.00;46.10;;;;;;10419017;28;20229;-71
2022/01/26 09:11:08;;;;;;;18.17;13.43;;;4.00;46.00;;;;;;10418333;28;20267;-71
2022/01/26 09:16:18;;;;;;;21.60;15.40;;;4.10;46.10;;;;;;10412609;28;20233;-70
2022/01/26 09:21:22;;;;;;;20.37;14.50;;;4.10;46.10;;;;;;10415374;28;20240;-70
2022/01/26 09:26:25;;;;;;;20.70;14.70;;;4.10;46.00;;;;;;10412615;28;20534;-70
2022/01/26 09:31:29;;;;;;;22.37;14.80;;;4.20;46.00;;;;;;10411206;28;20230;-71
2022/01/26 09:36:33;;;;;;;19.20;14.10;;;4.20;45.90;;;;;;10414402;28;20229;-71
2022/01/26 09:41:37;;;;;;;20.50;14.20;;;4.10;45.70;;;;;;10411399;28;20230;-71
2022/01/26 09:46:42;;;;;;;21.40;14.77;;;4.10;46.10;;;;;;10411256;28;20232;-71
2022/01/26 09:51:49;;;;;;;23.27;14.77;;;4.10;45.90;;;;;;10409830;28;20225;-71
2022/01/26 09:56:57;;;;;;;20.60;14.07;;;4.10;46.00;;;;;;10409236;28;20726;-71
2022/01/26 10:02:02;;;;;;;21.17;14.47;;;4.20;46.10;;;;;;10412899;28;20284;-72
2022/01/26 10:07:19;;;;;;;22.07;14.17;;;4.20;46.00;;;;;;10416582;28;20235;-72
2022/01/26 10:18:11;;;;;;;20.90;14.27;;;4.30;45.40;;;;;;10420958;28;20279;-71
2022/01/26 10:23:17;;;;;;;21.97;14.73;;;4.40;45.30;;;;;;10418985;28;20227;-71
2022/01/26 10:28:20;;;;;;;19.13;13.53;;;4.30;45.30;;;;;;10420423;28;20224;-71
2022/01/26 10:33:25;;;;;;;19.83;13.43;;;4.30;45.40;;;;;;10418122;28;20601;-71
2022/01/26 10:38:28;;;;;;;20.20;13.50;;;4.40;45.50;;;;;;10418237;28;20245;-72
2022/01/26 10:43:32;;;;;;;21.47;14.07;;;4.40;45.50;;;;;;10417131;28;20232;-71
2022/01/26 10:48:42;;;;;;;21.63;15.30;;;4.50;45.40;;;;;;10413783;28;20322;-72
2022/01/26 10:53:50;;;;;;;25.17;16.30;;;4.50;45.50;;;;;;10417793;28;20228;-71
2022/01/26 10:58:53;;;;;;;22.43;15.83;;;4.50;45.50;;;;;;10434017;28;20705;-70
2022/01/26 11:03:58;;;;;;;23.33;15.83;;;4.40;45.40;;;;;;10442643;28;20563;-71
2022/01/26 11:09:07;;;;;;;26.13;17.60;;;4.40;45.50;;;;;;10424306;28;20221;-71
2022/01/26 11:14:21;;;;;;;29.57;19.27;;;4.40;45.70;;;;;;10418357;28;20256;-71
2022/01/26 11:19:39;;;;;;;26.63;17.40;;;4.40;45.90;;;;;;10414932;28;20233;-71
2022/01/26 11:24:45;;;;;;;27.77;18.00;;;4.40;45.70;;;;;;10414840;28;20229;-71
2022/01/26 11:29:53;;;;;;;25.80;18.53;;;4.40;45.60;;;;;;10419906;28;20225;-72
2022/01/26 11:34:58;;;;;;;22.83;16.33;;;4.50;45.60;;;;;;10420356;28;20233;-71
2022/01/26 11:45:34;;;;;;;25.57;18.37;;;4.50;45.40;;;;;;10415607;28;20697;-72
2022/01/26 11:50:43;;;;;;;27.80;19.33;;;4.40;45.50;;;;;;10415212;28;20228;-72
2022/01/26 11:55:49;;;;;;;25.50;18.10;;;4.30;45.70;;;;;;10414890;28;20240;-72
2022/01/26 12:01:11;;;;;;;27.17;18.53;;;4.40;45.90;;;;;;10435703;28;20674;-71
2022/01/26 12:06:27;;;;;;;29.87;20.40;;;4.40;45.70;;;;;;10440855;28;20232;-71
2022/01/26 12:11:30;;;;;;;26.40;18.53;;;4.40;46.00;;;;;;10441673;28;20228;-72
2022/01/26 12:16:36;;;;;;;28.27;19.87;;;4.50;45.90;;;;;;10440386;28;20237;-72
2022/01/26 12:37:55;;;;;;;24.03;16.97;;;4.60;46.10;;;;;;10422837;28;20236;-72
2022/01/26 12:43:05;;;;;;;26.37;18.03;;;4.60;45.90;;;;;;10449162;28;20319;-72
2022/01/26 12:48:30;;;;;;;24.37;17.47;;;4.70;45.80;;;;;;10448273;28;20236;-72
2022/01/26 12:53:36;;;;;;;25.40;18.27;;;4.60;45.60;;;;;;10448245;28;20769;-70
2022/01/26 12:58:41;;;;;;;25.50;16.93;;;4.70;45.60;;;;;;10441366;28;20312;-70
2022/01/26 13:03:48;;;;;;;28.57;19.77;;;4.70;45.50;;;;;;10412075;28;20243;-72
2022/01/26 13:08:55;;;;;;;24.73;18.03;;;4.70;45.50;;;;;;10435707;28;20221;-70
2022/01/26 13:14:14;;;;;;;26.90;18.23;;;4.70;45.70;;;;;;10408240;28;20238;-70
2022/01/26 13:19:33;;;;;;;26.43;17.33;;;4.70;45.70;;;;;;10425774;28;20700;-71
2022/01/26 13:24:59;;;;;;;28.00;18.93;;;4.70;46.30;;;;;;10439389;28;20233;-71
2022/01/26 13:30:22;;;;;;;29.63;19.27;;;4.70;45.50;;;;;;10440039;28;20221;-70
2022/01/26 13:35:42;;;;;;;28.43;19.50;;;4.60;45.30;;;;;;10432629;28;20244;-72
2022/01/26 13:40:56;;;;;;;23.00;16.73;;;4.60;45.40;;;;;;10421254;28;20243;-71
2022/01/26 13:51:38;;;;;;;26.30;17.70;;;4.50;45.60;;;;;;10402023;28;20228;-71
2022/01/26 13:56:56;;;;;;;24.50;16.33;;;4.50;45.60;;;;;;10430356;28;20243;-72
2022/01/26 14:02:00;;;;;;;29.43;17.63;;;4.60;45.80;;;;;;10412617;28;20240;-72
2022/01/26 14:07:04;;;;;;;25.27;17.13;;;4.70;45.80;;;;;;10406678;28;20238;-72
2022/01/26 14:12:12;;;;;;;24.30;17.17;;;4.70;45.60;;;;;;10430355;28;20760;-73
2022/01/26 14:17:17;;;;;;;23.30;16.57;;;4.70;45.80;;;;;;10432806;28;20846;-73
2022/01/26 14:22:38;;;;;;;26.67;17.13;;;4.70;45.60;;;;;;10423877;28;20244;-72
2022/01/26 14:27:46;;;;;;;26.50;18.23;;;4.80;45.80;;;;;;10435652;28;20248;-72
2022/01/26 14:33:08;;;;;;;25.80;17.97;;;4.80;45.80;;;;;;10431026;28;20233;-74
2022/01/26 14:54:42;;;;;;;24.43;16.37;;;4.90;45.60;;;;;;10428247;28;20316;-74
2022/01/26 15:00:28;;;;;;;23.80;17.20;;;4.90;45.40;;;;;;10431365;28;20229;-73
2022/01/26 15:48:53;;;;;;;22.97;17.20;;;4.80;45.60;;;;;;10432547;28;20271;-73
2022/01/26 16:04:19;;;;;;;22.70;15.87;;;4.90;45.80;;;;;;10383581;28;20221;-73
2022/01/26 16:05:23;;;;;;;20.43;14.00;;;4.90;45.60;;;;;;10433020;28;20748;-73
2022/01/26 16:21:26;;;;;;;25.27;15.53;;;5.10;45.30;;;;;;10394840;28;20232;-74
2022/01/26 16:27:10;;;;;;;24.87;15.87;;;5.10;45.40;;;;;;10440480;28;20229;-74
2022/01/26 17:48:15;;;;;;;18.43;14.27;;;4.80;45.20;;;;;;10389092;28;20234;-74
2022/01/26 18:04:10;;;;;;;19.37;13.57;;;4.80;45.30;;;;;;10439687;28;20231;-75
2022/01/26 18:52:25;;;;;;;21.77;15.70;;;4.70;46.30;;;;;;10415535;28;20233;-74
2022/01/26 18:57:28;;;;;;;22.50;16.60;;;4.70;45.70;;;;;;10425708;28;20233;-74
2022/01/26 19:02:33;;;;;;;23.47;16.93;;;4.70;45.80;;;;;;10424772;28;20309;-75
2022/01/26 19:07:44;;;;;;;21.00;15.93;;;4.70;45.80;;;;;;10433484;28;20224;-74
2022/01/26 19:12:49;;;;;;;22.90;17.10;;;4.70;45.70;;;;;;10421174;28;20233;-74
2022/01/26 19:17:58;;;;;;;19.73;15.53;;;4.80;45.70;;;;;;10429930;28;20247;-74
2022/01/26 19:23:14;;;;;;;21.27;16.33;;;4.70;45.40;;;;;;10433291;28;20400;-74
2022/01/26 19:28:22;;;;;;;22.87;16.10;;;4.80;45.40;;;;;;10433525;28;20216;-74
2022/01/26 19:44:21;;;;;;;19.50;14.60;;;4.80;45.60;;;;;;10409812;28;21064;-75
2022/01/26 19:54:51;;;;;;;21.73;15.30;;;4.60;45.40;;;;;;10411281;28;20236;-73
2022/01/26 19:59:54;;;;;;;23.60;17.10;;;4.60;45.50;;;;;;10425045;28;20256;-73
2022/01/26 20:04:59;;;;;;;22.07;16.10;;;4.50;45.30;;;;;;10418794;28;20756;-74
2022/01/26 20:10:04;;;;;;;20.37;14.60;;;4.40;45.40;;;;;;10418349;28;20229;-73
2022/01/26 20:15:10;;;;;;;24.37;17.50;;;4.40;45.50;;;;;;10419250;28;20238;-73
2022/01/26 20:20:16;;;;;;;21.27;15.70;;;4.40;45.70;;;;;;10405809;28;20316;-73
2022/01/26 20:25:19;;;;;;;21.67;15.37;;;4.40;45.90;;;;;;10425691;28;20237;-74
2022/01/26 20:30:24;;;;;;;19.30;13.20;;;4.50;45.80;;;;;;10427762;28;20231;-73
2022/01/26 20:35:28;;;;;;;19.60;14.10;;;4.40;45.60;;;;;;10422980;28;20236;-75
2022/01/26 20:40:33;;;;;;;18.43;13.37;;;4.40;45.70;;;;;;10408016;28;20232;-74
2022/01/26 20:45:37;;;;;;;18.57;13.83;;;4.40;45.60;;;;;;10422106;28;20229;-75
2022/01/26 20:50:41;;;;;;;19.07;14.20;;;4.40;45.60;;;;;;10406498;28;20241;-75
2022/01/26 20:55:45;;;;;;;16.80;12.87;;;4.40;45.40;;;;;;10403030;28;20229;-74
2022/01/26 21:00:48;;;;;;;16.37;13.13;;;4.40;45.40;;;;;;10420288;28;20227;-74
2022/01/26 21:05:53;;;;;;;19.20;14.47;;;4.40;45.20;;;;;;10417172;28;20243;-74
2022/01/26 21:10:57;;;;;;;19.17;14.43;;;4.40;45.20;;;;;;10423498;28;20223;-74
2022/01/26 21:16:07;;;;;;;16.47;13.10;;;4.40;45.30;;;;;;10427636;28;20287;-74
2022/01/26 21:21:12;;;;;;;17.53;13.50;;;4.40;45.20;;;;;;10415545;28;20278;-74
2022/01/26 21:26:15;;;;;;;15.97;12.73;;;4.30;45.10;;;;;;10418082;28;20240;-74
2022/01/26 21:31:19;;;;;;;18.30;14.00;;;4.30;45.00;;;;;;10421328;28;20221;-73
2022/01/26 21:36:24;;;;;;;15.00;12.10;;;4.20;45.00;;;;;;10433937;28;20244;-73
2022/01/26 21:41:27;;;;;;;17.93;13.83;;;4.20;45.00;;;;;;10420665;28;20237;-73
2022/01/26 21:46:30;;;;;;;17.60;14.67;;;4.20;45.00;;;;;;10416979;28;20236;-73
2022/01/26 21:51:35;;;;;;;16.13;12.60;;;4.20;45.10;;;;;;10421964;28;20236;-73
2022/01/26 21:56:39;;;;;;;18.50;14.07;;;4.20;45.00;;;;;;10419438;28;20229;-73
2022/01/26 22:01:42;;;;;;;16.23;12.97;;;4.10;45.10;;;;;;10418682;28;20221;-73
2022/01/26 22:06:47;;;;;;;15.37;12.33;;;4.10;45.20;;;;;;10414860;28;20236;-73
2022/01/26 22:11:50;;;;;;;17.57;13.60;;;4.10;45.30;;;;;;10416270;28;20225;-73
2022/01/26 22:16:54;;;;;;;14.47;12.10;;;4.10;45.20;;;;;;10420687;28;20229;-73
2022/01/26 22:21:59;;;;;;;16.07;13.23;;;4.10;45.30;;;;;;10419675;28;20241;-73
2022/01/26 22:27:03;;;;;;;16.10;13.20;;;4.10;45.20;;;;;;10416460;28;20229;-73
2022/01/26 22:32:08;;;;;;;15.37;13.17;;;4.10;45.20;;;;;;10417398;28;20230;-73
2022/01/26 22:37:12;;;;;;;17.80;14.57;;;4.10;45.10;;;;;;10417954;28;20232;-73
2022/01/26 22:42:16;;;;;;;15.30;13.03;;;4.00;45.20;;;;;;10421112;28;20229;-73
2022/01/26 22:47:19;;;;;;;14.27;11.53;;;4.10;45.30;;;;;;10417100;28;20868;-73
2022/01/26 22:52:24;;;;;;;13.67;11.87;;;4.20;45.20;;;;;;10425419;28;20233;-73
2022/01/26 22:57:27;;;;;;;13.43;11.60;;;4.20;45.20;;;;;;10420043;28;20231;-73
2022/01/26 23:02:47;;;;;;;14.13;12.40;;;4.30;45.00;;;;;;10414806;28;20605;-73
2022/01/26 23:08:12;;;;;;;16.13;12.73;;;4.20;44.90;;;;;;10415737;28;20225;-73
2022/01/26 23:13:15;;;;;;;17.37;12.50;;;4.20;44.70;;;;;;10419016;28;20316;-73
2022/01/26 23:18:18;;;;;;;12.63;11.27;;;4.10;44.50;;;;;;10412314;28;20309;-73
2022/01/26 23:23:25;;;;;;;15.40;12.93;;;4.10;44.80;;;;;;10413580;28;20232;-73
2022/01/26 23:28:39;;;;;;;13.07;11.50;;;4.10;44.60;;;;;;10420531;28;20940;-73
2022/01/26 23:34:07;;;;;;;13.30;11.90;;;4.10;44.70;;;;;;10421812;28;20236;-73
2022/01/26 23:39:29;;;;;;;13.47;12.07;;;4.10;44.70;;;;;;10412261;28;20217;-73
